createdAt,value
2023-04-23T00:02:38.607Z,19.9
2023-04-23T00:08:32.614Z,22.3
2023-04-23T00:14:24.578Z,20.6
2023-04-23T00:20:15.716Z,19.8
2023-04-23T00:26:06.631Z,19.4
2023-04-23T00:31:58.675Z,19.3
2023-04-23T00:37:34.023Z,19
2023-04-23T00:43:25.435Z,18.8
2023-04-23T00:49:17.730Z,20.9
2023-04-23T00:55:09.392Z,22.1
2023-04-23T01:00:59.884Z,20.2
2023-04-23T01:06:52.922Z,19.6
2023-04-23T01:12:43.559Z,19.3
2023-04-23T01:18:20.082Z,19.1
2023-04-23T01:24:11.319Z,18.9
2023-04-23T01:30:02.776Z,18.8
2023-04-23T01:35:54.487Z,21.6
2023-04-23T01:41:46.070Z,21.3
2023-04-23T01:47:40.205Z,19.9
2023-04-23T01:53:31.827Z,19.5
2023-04-23T01:59:06.899Z,19.3
2023-04-23T02:05:00.001Z,19
2023-04-23T02:10:51.636Z,18.8
2023-04-23T02:16:43.438Z,19.5
2023-04-23T02:22:35.722Z,22.1
2023-04-23T02:28:27.303Z,20.6
2023-04-23T02:34:19.337Z,19.7
2023-04-23T02:40:10.558Z,19.3
2023-04-23T02:46:01.923Z,19.1
2023-04-23T02:51:53.644Z,18.9
2023-04-23T02:57:45.081Z,18.8
2023-04-23T03:03:38.323Z,18.6
2023-04-23T03:09:14.613Z,21.1
2023-04-23T03:15:06.286Z,21.9
2023-04-23T03:20:57.811Z,20.1
2023-04-23T03:26:49.090Z,19.4
2023-04-23T03:32:42.251Z,19.1
2023-04-23T03:38:34.398Z,19
2023-04-23T03:44:10.341Z,18.8
2023-04-23T03:49:46.470Z,18.8
2023-04-23T04:01:13.668Z,21.6
2023-04-23T04:07:08.495Z,21
2023-04-23T04:13:00.162Z,19.8
2023-04-23T04:18:52.504Z,19.3
2023-04-23T04:24:44.633Z,19
2023-04-23T04:30:35.897Z,18.9
2023-04-23T04:36:27.628Z,18.8
2023-04-23T04:42:19.120Z,18.6
2023-04-23T04:48:11.268Z,18.5
2023-04-23T04:54:02.646Z,21.6
2023-04-23T05:05:32.046Z,19.8
2023-04-23T05:11:24.868Z,19.4
2023-04-23T05:17:16.579Z,19.1
2023-04-23T05:23:08.312Z,18.9
2023-04-23T05:29:00.221Z,18.8
2023-04-23T05:34:58.048Z,20.9
2023-04-23T05:40:51.285Z,21.8
2023-04-23T05:46:43.196Z,20
2023-04-23T05:52:36.969Z,19.5
2023-04-23T05:58:28.651Z,19.2
2023-04-23T06:04:07.305Z,19
2023-04-23T06:10:02.973Z,18.8
2023-04-23T06:15:56.055Z,20.4
2023-04-23T06:21:47.742Z,22.2
2023-04-23T06:27:39.612Z,20.1
2023-04-23T06:33:31.321Z,19.5
2023-04-23T06:39:33.182Z,19.2
2023-04-23T06:45:24.905Z,19
2023-04-23T06:51:17.177Z,18.8
2023-04-23T06:57:09.105Z,20.6
2023-04-23T07:03:02.573Z,21.9
2023-04-23T07:08:55.060Z,20
2023-04-23T07:14:46.302Z,19.5
2023-04-23T07:20:37.746Z,19.3
2023-04-23T07:26:29.045Z,18.9
2023-04-23T07:32:20.264Z,18.8
2023-04-23T07:38:11.994Z,21.4
2023-04-23T07:44:06.268Z,21.4
2023-04-23T07:49:58.971Z,19.9
2023-04-23T07:55:34.929Z,19.4
2023-04-23T08:01:29.005Z,19.2
2023-04-23T08:07:23.684Z,19
2023-04-23T08:13:14.761Z,18.8
2023-04-23T08:19:22.352Z,22.1
2023-04-23T08:25:14.296Z,20.8
2023-04-23T08:30:50.884Z,19.8
2023-04-23T08:53:59.278Z,18.8
2023-04-23T08:59:35.818Z,21.9
2023-04-23T09:11:08.533Z,20
2023-04-23T09:16:59.256Z,19.6
2023-04-23T09:22:34.627Z,19.3
2023-04-23T09:28:26.460Z,19.1
2023-04-23T09:34:03.308Z,18.9
2023-04-23T09:45:31.396Z,18.6
2023-04-23T09:51:08.303Z,18.4
2023-04-23T09:57:00.593Z,18.3
2023-04-23T10:03:16.370Z,18.2
2023-04-23T10:10:08.601Z,18
2023-04-23T10:17:06.382Z,17.9
2023-04-23T10:23:09.324Z,17.8
2023-04-23T10:29:16.994Z,17.7
2023-04-23T10:35:38.646Z,17.6
2023-04-23T10:41:31.567Z,17.5
2023-04-23T10:47:33.479Z,17.4
2023-04-23T10:54:10.560Z,17.4
2023-04-23T11:00:01.701Z,17.3
2023-04-23T11:05:57.897Z,17.3
2023-04-23T11:11:56.930Z,17.2
2023-04-23T11:17:50.648Z,17.1
2023-04-23T11:23:29.137Z,17.1
2023-04-23T11:29:20.258Z,17.1
2023-04-23T11:35:21.938Z,17.1
2023-04-23T11:51:56.774Z,16.9
2023-04-23T11:57:48.725Z,16.9
2023-04-23T12:03:42.113Z,16.9
2023-04-23T12:09:44.008Z,16.9
2023-04-23T12:15:19.560Z,16.9
2023-04-23T12:21:13.683Z,16.8
2023-04-23T12:27:05.489Z,16.8
2023-04-23T12:32:57.694Z,16.8
2023-04-23T12:38:49.303Z,16.8
2023-04-23T12:44:40.265Z,16.8
2023-04-23T12:50:33.040Z,16.8
2023-04-23T12:56:24.654Z,16.8
2023-04-23T13:02:16.769Z,16.7
2023-04-23T13:08:10.966Z,16.7
2023-04-23T13:13:47.471Z,16.7
2023-04-23T13:19:39.922Z,16.7
2023-04-23T13:25:33.919Z,16.7
2023-04-23T13:31:10.293Z,16.7
2023-04-23T13:36:46.535Z,16.6
2023-04-23T13:42:52.787Z,16.7
2023-04-23T13:48:44.476Z,16.6
2023-04-23T13:54:52.775Z,16.6
2023-04-23T14:00:41.600Z,16.6
2023-04-23T14:06:34.956Z,16.6
2023-04-23T14:12:12.247Z,16.6
2023-04-23T14:17:48.477Z,16.6
2023-04-23T14:23:28.563Z,16.6
2023-04-23T14:29:34.733Z,16.6
2023-04-23T14:35:35.859Z,16.6
2023-04-23T14:41:33.040Z,16.6
2023-04-23T14:47:36.775Z,16.6
2023-04-23T14:53:13.056Z,16.6
2023-04-23T14:59:04.270Z,16.6
2023-04-23T15:04:59.702Z,16.6
2023-04-23T15:10:51.415Z,16.6
2023-04-23T15:16:54.215Z,16.5
2023-04-23T15:22:46.186Z,16.5
2023-04-23T15:28:38.225Z,16.5
2023-04-23T15:34:15.146Z,16.5
2023-04-23T15:40:07.674Z,16.5
2023-04-23T15:45:59.169Z,16.5
2023-04-23T15:51:50.965Z,16.5
2023-04-23T15:57:43.467Z,16.5
2023-04-23T16:03:39.122Z,16.5
2023-04-23T16:09:47.455Z,16.5
2023-04-23T16:15:39.569Z,16.5
2023-04-23T16:21:32.547Z,16.5
2023-04-23T16:27:24.521Z,16.5
2023-04-23T16:33:36.833Z,16.5
2023-04-23T16:39:28.243Z,16.5
2023-04-23T16:45:19.942Z,16.5
2023-04-23T16:51:13.697Z,16.5
2023-04-23T16:57:07.165Z,16.5
2023-04-23T17:03:00.257Z,16.5
2023-04-23T17:08:54.752Z,16.5
2023-04-23T17:14:32.411Z,16.5
2023-04-23T17:20:10.212Z,16.5
2023-04-23T17:26:03.044Z,16.5
2023-04-23T17:31:56.481Z,16.5
2023-04-23T17:37:56.072Z,16.5
2023-04-23T17:43:49.505Z,16.5
2023-04-23T17:49:45.573Z,16.5
2023-04-23T17:55:41.707Z,16.4
2023-04-23T18:01:22.068Z,16.4
2023-04-23T18:07:19.924Z,16.4
2023-04-23T18:12:58.697Z,16.4
2023-04-23T18:18:36.931Z,16.4
2023-04-23T18:24:16.826Z,16.5
2023-04-23T18:29:38.937Z,16.5
2023-04-23T18:35:29.698Z,16.5
2023-04-23T18:42:02.462Z,16.5
2023-04-23T18:47:40.626Z,16.5
2023-04-23T18:53:20.364Z,16.5
2023-04-23T18:58:59.919Z,16.5
2023-04-23T19:05:20.545Z,16.5
2023-04-23T19:11:14.220Z,16.5
2023-04-23T19:16:36.587Z,16.5
2023-04-23T19:22:29.959Z,16.5
2023-04-23T19:28:08.455Z,16.5
2023-04-23T19:34:01.867Z,16.5
2023-04-23T19:39:39.696Z,16.5
2023-04-23T19:45:17.565Z,16.5
2023-04-23T19:50:56.078Z,16.4
2023-04-23T19:56:35.584Z,16.4
2023-04-23T20:02:29.275Z,16.5
2023-04-23T20:08:07.849Z,16.4
2023-04-23T20:13:44.866Z,16.4
2023-04-23T20:19:25.338Z,16.4
2023-04-23T20:24:47.668Z,16.4
2023-04-23T20:30:25.408Z,16.4
2023-04-23T20:36:02.560Z,16.4
2023-04-23T20:41:39.361Z,16.4
2023-04-23T20:47:15.359Z,16.4
2023-04-23T20:53:06.767Z,16.4
2023-04-23T20:58:42.777Z,16.4
2023-04-23T21:04:36.324Z,21
2023-04-23T21:10:28.251Z,23
2023-04-23T21:16:19.796Z,22.6
2023-04-23T21:22:11.834Z,20.3
2023-04-23T21:28:05.772Z,19.7
2023-04-23T21:33:41.762Z,21.4
2023-04-23T21:39:33.239Z,23.3
2023-04-23T21:45:24.855Z,21.3
2023-04-23T21:51:16.977Z,20.1
2023-04-23T21:57:08.821Z,19.7
2023-04-23T22:03:24.235Z,19.5
2023-04-23T22:09:28.473Z,22.8
2023-04-23T22:15:34.631Z,22.3
2023-04-23T22:21:39.652Z,20.3
2023-04-23T22:27:30.117Z,19.9
2023-04-23T22:33:05.880Z,19.6
2023-04-23T22:38:58.230Z,19.5
2023-04-23T22:44:35.884Z,22.8
2023-04-23T22:50:11.680Z,22.2
2023-04-23T22:55:34.489Z,20.3
2023-04-23T23:01:10.418Z,19.8
2023-04-23T23:06:31.789Z,19.6
2023-04-23T23:12:23.164Z,19.4
2023-04-23T23:17:59.196Z,21.4
2023-04-23T23:23:50.207Z,23.4
2023-04-23T23:29:41.686Z,20.9
2023-04-23T23:35:33.136Z,20.1
2023-04-23T23:41:24.045Z,19.8
2023-04-23T23:47:18.995Z,19.5
2023-04-23T23:52:55.386Z,19.3
2023-04-23T23:58:31.678Z,22.7
